createdAt,value
2022-08-07T00:01:44.704Z,14.56
2022-08-07T00:04:09.213Z,14.61
2022-08-07T00:06:40.900Z,14.55
2022-08-07T00:09:21.345Z,14.45
2022-08-07T00:11:55.635Z,14.48
2022-08-07T00:14:25.445Z,14.53
2022-08-07T00:16:52.700Z,14.56
2022-08-07T00:19:21.621Z,14.63
2022-08-07T00:21:57.361Z,14.68
2022-08-07T00:24:29.016Z,14.70
2022-08-07T00:27:07.653Z,14.73
2022-08-07T00:29:37.138Z,14.61
2022-08-07T00:32:05.952Z,14.56
2022-08-07T00:34:35.485Z,14.46
2022-08-07T00:37:05.134Z,14.45
2022-08-07T00:39:33.799Z,14.44
2022-08-07T00:42:02.293Z,14.55
2022-08-07T00:44:33.090Z,14.57
2022-08-07T00:47:01.493Z,14.59
2022-08-07T00:50:19.475Z,14.56
2022-08-07T00:52:17.605Z,14.59
2022-08-07T00:54:44.500Z,14.60
2022-08-07T00:57:12.616Z,14.59
2022-08-07T00:59:39.502Z,14.60
2022-08-07T01:02:14.237Z,14.65
2022-08-07T01:04:54.329Z,14.61
2022-08-07T01:07:27.543Z,14.48
2022-08-07T01:10:07.011Z,14.52
2022-08-07T01:12:43.975Z,14.49
2022-08-07T01:16:01.336Z,14.52
2022-08-07T01:18:17.188Z,14.40
2022-08-07T01:21:04.294Z,14.41
2022-08-07T01:23:46.717Z,14.36
2022-08-07T01:26:16.729Z,14.30
2022-08-07T01:28:49.875Z,14.27
2022-08-07T01:31:27.945Z,14.22
2022-08-07T01:34:09.137Z,14.23
2022-08-07T01:36:40.854Z,14.15
2022-08-07T01:39:14.366Z,14.12
2022-08-07T01:42:07.179Z,14.05
2022-08-07T01:44:36.191Z,13.97
2022-08-07T01:48:16.492Z,13.96
2022-08-07T01:49:53.608Z,13.99
2022-08-07T01:52:26.589Z,14.08
2022-08-07T01:54:56.464Z,14.05
2022-08-07T01:58:01.249Z,14.03
2022-08-07T02:00:28.652Z,13.99
2022-08-07T02:03:18.917Z,14.03
2022-08-07T02:06:01.066Z,13.89
2022-08-07T02:08:33.955Z,13.82
2022-08-07T02:11:03.790Z,13.82
2022-08-07T02:13:57.478Z,13.85
2022-08-07T02:16:28.606Z,13.89
2022-08-07T02:19:05.662Z,14.01
2022-08-07T02:21:56.435Z,13.99
2022-08-07T02:24:26.184Z,13.95
2022-08-07T02:26:58.437Z,13.81
2022-08-07T02:29:29.097Z,13.81
2022-08-07T02:31:57.920Z,13.89
2022-08-07T02:34:27.725Z,13.94
2022-08-07T02:36:56.640Z,14.01
2022-08-07T02:39:42.431Z,14.05
2022-08-07T02:42:16.219Z,14.03
2022-08-07T02:44:48.870Z,13.95
2022-08-07T02:47:23.457Z,13.94
2022-08-07T02:49:58.092Z,14.02
2022-08-07T02:52:41.581Z,14.18
2022-08-07T02:55:28.288Z,14.29
2022-08-07T02:58:10.940Z,14.36
2022-08-07T03:00:47.402Z,14.21
2022-08-07T03:03:20.951Z,14.11
2022-08-07T03:05:51.707Z,14.15
2022-08-07T03:08:26.936Z,14.06
2022-08-07T03:10:59.664Z,14.09
2022-08-07T03:13:39.195Z,14.02
2022-08-07T03:16:18.696Z,13.99
2022-08-07T03:18:55.118Z,13.98
2022-08-07T03:21:23.388Z,14.02
2022-08-07T03:24:19.218Z,14.05
2022-08-07T03:26:51.030Z,14.03
2022-08-07T03:29:27.535Z,13.92
2022-08-07T03:31:56.297Z,13.91
2022-08-07T03:34:27.544Z,13.98
2022-08-07T03:37:00.161Z,13.90
2022-08-07T03:39:58.941Z,13.98
2022-08-07T03:42:28.193Z,13.93
2022-08-07T03:44:58.134Z,13.88
2022-08-07T03:47:29.629Z,13.81
2022-08-07T03:50:17.518Z,13.77
2022-08-07T03:52:52.497Z,13.70
2022-08-07T03:55:20.047Z,13.81
2022-08-07T03:59:04.641Z,13.83
2022-08-07T04:00:46.486Z,13.83
2022-08-07T04:03:20.884Z,13.81
2022-08-07T04:05:50.551Z,13.80
2022-08-07T04:08:21.878Z,13.78
2022-08-07T04:10:54.026Z,13.83
2022-08-07T04:14:10.627Z,13.90
2022-08-07T04:16:31.058Z,13.90
2022-08-07T04:19:04.232Z,13.86
2022-08-07T04:21:39.909Z,13.91
2022-08-07T04:24:33.701Z,13.92
2022-08-07T04:27:04.899Z,13.97
2022-08-07T04:29:57.142Z,13.96
2022-08-07T04:32:27.203Z,14.03
2022-08-07T04:35:05.516Z,14.10
2022-08-07T04:38:01.025Z,14.07
2022-08-07T04:40:26.600Z,14.06
2022-08-07T04:43:01.904Z,14.03
2022-08-07T04:45:57.609Z,14.02
2022-08-07T04:49:01.507Z,14.15
2022-08-07T04:51:47.169Z,14.18
2022-08-07T04:54:30.312Z,14.26
2022-08-07T04:58:11.707Z,14.27
2022-08-07T05:00:11.067Z,14.29
2022-08-07T05:03:16.745Z,14.33
2022-08-07T05:06:16.413Z,14.36
2022-08-07T05:09:01.425Z,14.39
2022-08-07T05:11:58.835Z,14.38
2022-08-07T05:14:54.053Z,14.49
2022-08-07T05:17:52.933Z,14.61
2022-08-07T05:20:17.958Z,14.67
2022-08-07T05:22:49.483Z,14.63
2022-08-07T05:25:25.557Z,14.69
2022-08-07T05:28:20.589Z,14.83
2022-08-07T05:30:52.343Z,14.95
2022-08-07T05:33:21.789Z,15.06
2022-08-07T05:35:53.585Z,15.15
2022-08-07T05:39:00.301Z,15.19
2022-08-07T05:41:16.762Z,15.37
2022-08-07T05:44:11.648Z,15.59
2022-08-07T05:46:38.266Z,15.65
2022-08-07T05:49:12.102Z,15.76
2022-08-07T05:51:46.371Z,15.87
2022-08-07T05:54:30.339Z,15.91
2022-08-07T05:57:08.855Z,15.97
2022-08-07T05:59:57.132Z,16.05
2022-08-07T06:02:30.661Z,16.20
2022-08-07T06:05:05.162Z,16.34
2022-08-07T06:08:09.164Z,16.53
2022-08-07T06:10:23.713Z,16.71
2022-08-07T06:12:50.935Z,16.74
2022-08-07T06:15:19.688Z,16.94
2022-08-07T06:17:50.632Z,17.03
2022-08-07T06:20:25.678Z,17.20
2022-08-07T06:23:02.549Z,17.48
2022-08-07T06:25:54.647Z,17.76
2022-08-07T06:28:27.708Z,17.65
2022-08-07T06:30:58.121Z,17.67
2022-08-07T06:33:26.691Z,17.96
2022-08-07T06:36:13.531Z,18.00
2022-08-07T06:38:59.230Z,18.22
2022-08-07T06:42:00.716Z,18.12
2022-08-07T06:45:11.899Z,18.42
2022-08-07T06:47:57.470Z,18.63
2022-08-07T06:50:30.549Z,18.70
2022-08-07T06:53:00.371Z,18.70
2022-08-07T06:55:48.079Z,18.60
2022-08-07T06:58:24.505Z,18.81
2022-08-07T07:01:00.159Z,19.07
2022-08-07T07:03:47.647Z,19.35
2022-08-07T07:06:14.543Z,19.63
2022-08-07T07:08:50.856Z,19.03
2022-08-07T07:12:07.553Z,19.09
2022-08-07T07:14:08.299Z,19.20
2022-08-07T07:16:50.040Z,19.12
2022-08-07T07:19:55.405Z,19.46
2022-08-07T07:22:34.412Z,19.96
2022-08-07T07:26:30.862Z,20.06
2022-08-07T07:28:42.357Z,19.84
2022-08-07T07:31:27.109Z,19.81
2022-08-07T07:34:04.890Z,20.14
2022-08-07T07:36:35.293Z,20.74
2022-08-07T07:39:09.193Z,20.84
2022-08-07T07:42:02.316Z,20.91
2022-08-07T07:44:28.196Z,20.63
2022-08-07T07:47:04.371Z,20.60
2022-08-07T07:50:35.717Z,21.00
2022-08-07T07:52:32.474Z,21.37
2022-08-07T07:54:59.914Z,21.47
2022-08-07T07:57:43.612Z,21.34
2022-08-07T08:00:29.768Z,21.31
2022-08-07T08:03:06.135Z,21.05
2022-08-07T08:05:51.049Z,21.19
2022-08-07T08:08:35.262Z,21.45
2022-08-07T08:11:09.307Z,21.54
2022-08-07T08:13:54.642Z,21.44
2022-08-07T08:16:37.153Z,22.00
2022-08-07T08:19:17.804Z,22.03
2022-08-07T08:22:14.353Z,22.45
2022-08-07T08:25:18.849Z,23.03
2022-08-07T08:27:56.252Z,23.37
2022-08-07T08:30:29.695Z,23.28
2022-08-07T08:33:03.031Z,23.44
2022-08-07T08:35:39.278Z,23.71
2022-08-07T08:38:17.903Z,24.01
2022-08-07T08:41:16.812Z,24.02
2022-08-07T08:44:19.322Z,23.99
2022-08-07T08:46:59.000Z,24.05
2022-08-07T08:50:02.183Z,24.33
2022-08-07T08:52:32.111Z,24.36
2022-08-07T08:55:55.362Z,23.69
2022-08-07T08:58:29.980Z,23.64
2022-08-07T09:01:14.826Z,23.34
2022-08-07T09:03:53.150Z,23.25
2022-08-07T09:06:42.657Z,22.87
2022-08-07T09:09:44.670Z,23.32
2022-08-07T09:12:20.078Z,23.49
2022-08-07T09:16:23.615Z,22.80
2022-08-07T09:18:16.880Z,22.63
2022-08-07T09:21:57.905Z,22.53
2022-08-07T09:24:59.654Z,22.60
2022-08-07T09:27:38.366Z,22.67
2022-08-07T09:30:25.518Z,22.60
2022-08-07T09:33:24.233Z,22.86
2022-08-07T09:36:06.005Z,22.89
2022-08-07T09:38:54.014Z,22.76
2022-08-07T09:41:58.930Z,23.45
2022-08-07T09:47:24.928Z,24.01
2022-08-07T09:48:03.726Z,23.91
2022-08-07T09:50:39.884Z,23.79
2022-08-07T09:53:10.116Z,23.82
2022-08-07T09:56:03.106Z,23.44
2022-08-07T09:59:00.948Z,22.97
2022-08-07T10:02:01.565Z,23.02
2022-08-07T10:04:38.428Z,23.03
2022-08-07T10:07:53.624Z,23.32
2022-08-07T10:11:59.494Z,24.15
2022-08-07T10:14:01.451Z,24.01
2022-08-07T10:16:50.113Z,24.12
2022-08-07T10:19:54.499Z,23.42
2022-08-07T10:22:45.361Z,24.43
2022-08-07T10:25:43.234Z,25.01
2022-08-07T10:28:31.121Z,25.12
2022-08-07T10:31:17.740Z,25.14
2022-08-07T10:34:06.797Z,24.29
2022-08-07T10:36:49.413Z,24.13
2022-08-07T10:39:41.220Z,24.01
2022-08-07T10:42:20.823Z,24.36
2022-08-07T10:44:54.541Z,25.01
2022-08-07T10:47:50.612Z,24.25
2022-08-07T10:50:26.119Z,24.58
2022-08-07T10:53:41.703Z,24.81
2022-08-07T10:56:36.249Z,24.31
2022-08-07T10:59:30.356Z,24.15
2022-08-07T11:02:53.338Z,24.25
2022-08-07T11:05:50.914Z,24.27
2022-08-07T11:08:32.364Z,24.33
2022-08-07T11:11:03.001Z,24.06
2022-08-07T11:14:41.943Z,24.16
2022-08-07T11:16:34.303Z,24.74
2022-08-07T11:19:21.670Z,25.02
2022-08-07T11:22:06.440Z,24.43
2022-08-07T11:25:06.809Z,24.97
2022-08-07T11:28:02.319Z,25.38
2022-08-07T11:30:45.536Z,25.07
2022-08-07T11:33:58.548Z,24.77
2022-08-07T11:36:39.307Z,24.41
2022-08-07T11:39:24.119Z,24.30
2022-08-07T11:42:19.102Z,24.64
2022-08-07T11:44:58.785Z,24.82
2022-08-07T11:48:30.022Z,24.89
2022-08-07T11:51:41.354Z,24.98
2022-08-07T11:54:17.412Z,24.92
2022-08-07T11:57:52.351Z,24.80
2022-08-07T12:00:19.127Z,24.10
2022-08-07T12:03:41.983Z,24.31
2022-08-07T12:06:36.938Z,24.38
2022-08-07T12:09:01.919Z,24.85
2022-08-07T12:12:10.775Z,24.96
2022-08-07T12:14:41.290Z,25.29
2022-08-07T12:17:19.922Z,25.82
2022-08-07T12:20:03.443Z,25.62
2022-08-07T12:23:14.473Z,24.96
2022-08-07T12:26:23.528Z,25.08
2022-08-07T12:29:15.311Z,25.40
2022-08-07T12:32:04.365Z,25.59
2022-08-07T12:34:38.852Z,25.89
2022-08-07T12:37:16.847Z,26.18
2022-08-07T12:39:51.791Z,26.10
2022-08-07T12:42:27.691Z,25.60
2022-08-07T12:44:58.178Z,25.53
2022-08-07T12:47:37.464Z,25.48
2022-08-07T12:50:34.321Z,25.39
2022-08-07T12:53:29.052Z,25.44
2022-08-07T12:56:30.943Z,25.91
2022-08-07T12:59:00.812Z,26.00
2022-08-07T13:01:58.967Z,25.99
2022-08-07T13:04:49.139Z,26.31
2022-08-07T13:08:13.899Z,26.13
2022-08-07T13:10:56.995Z,26.25
2022-08-07T13:13:46.874Z,26.19
2022-08-07T13:16:37.113Z,26.18
2022-08-07T13:19:50.788Z,26.27
2022-08-07T13:22:31.165Z,26.48
2022-08-07T13:25:15.276Z,26.24
2022-08-07T13:28:12.575Z,26.82
2022-08-07T13:30:49.183Z,27.27
2022-08-07T13:34:33.810Z,27.53
2022-08-07T13:36:45.098Z,27.21
2022-08-07T13:40:33.387Z,27.03
2022-08-07T13:42:27.458Z,26.43
2022-08-07T13:45:20.717Z,26.46
2022-08-07T13:48:06.945Z,26.46
2022-08-07T13:50:45.241Z,26.17
2022-08-07T13:54:00.826Z,26.13
2022-08-07T13:56:36.084Z,25.94
2022-08-07T13:59:18.644Z,25.51
2022-08-07T14:02:04.754Z,25.87
2022-08-07T14:04:36.363Z,25.99
2022-08-07T14:07:09.542Z,26.44
2022-08-07T14:10:02.783Z,25.70
2022-08-07T14:12:41.776Z,25.38
2022-08-07T14:15:31.680Z,25.38
2022-08-07T14:18:28.702Z,25.39
2022-08-07T14:22:01.021Z,26.02
2022-08-07T14:24:04.984Z,26.15
2022-08-07T14:26:50.499Z,26.42
2022-08-07T14:30:05.723Z,26.57
2022-08-07T14:32:14.039Z,26.59
2022-08-07T14:34:47.281Z,26.44
2022-08-07T14:37:17.368Z,26.14
2022-08-07T14:40:16.980Z,25.99
2022-08-07T14:43:56.017Z,25.72
2022-08-07T14:45:46.403Z,25.79
2022-08-07T14:48:20.388Z,26.20
2022-08-07T14:50:53.643Z,26.42
2022-08-07T14:54:05.667Z,25.91
2022-08-07T14:56:13.039Z,25.18
2022-08-07T14:58:43.071Z,25.44
2022-08-07T15:01:21.683Z,25.99
2022-08-07T15:03:52.349Z,25.91
2022-08-07T15:06:29.850Z,25.98
2022-08-07T15:12:01.840Z,24.76
2022-08-07T15:13:05.805Z,25.62
2022-08-07T15:14:35.209Z,24.62
2022-08-07T15:17:32.494Z,24.80
2022-08-07T15:20:33.185Z,24.75
2022-08-07T15:23:16.989Z,24.74
2022-08-07T15:25:55.904Z,24.87
2022-08-07T15:28:34.697Z,24.79
2022-08-07T15:31:09.594Z,24.40
2022-08-07T15:33:42.796Z,24.27
2022-08-07T15:36:10.229Z,24.32
2022-08-07T15:38:59.249Z,24.43
2022-08-07T15:42:44.756Z,24.49
2022-08-07T15:44:20.775Z,24.51
2022-08-07T15:46:54.101Z,24.30
2022-08-07T15:50:03.987Z,24.11
2022-08-07T15:52:30.674Z,24.42
2022-08-07T15:55:02.472Z,24.28
2022-08-07T15:57:48.228Z,24.06
2022-08-07T16:00:32.196Z,24.06
2022-08-07T16:03:46.348Z,23.95
2022-08-07T16:06:10.455Z,23.90
2022-08-07T16:08:42.567Z,23.90
2022-08-07T16:11:41.742Z,23.74
2022-08-07T16:14:19.202Z,23.69
2022-08-07T16:16:56.804Z,23.87
2022-08-07T16:19:58.975Z,23.92
2022-08-07T16:22:54.491Z,23.83
2022-08-07T16:25:23.226Z,23.79
2022-08-07T16:27:57.305Z,23.84
2022-08-07T16:30:32.440Z,23.84
2022-08-07T16:34:02.644Z,23.80
2022-08-07T16:36:31.471Z,23.97
2022-08-07T16:39:40.470Z,23.87
2022-08-07T16:43:02.684Z,23.73
2022-08-07T16:46:40.366Z,23.63
2022-08-07T16:49:04.046Z,23.49
2022-08-07T16:51:57.684Z,23.47
2022-08-07T16:54:34.557Z,23.48
2022-08-07T16:57:06.093Z,23.44
2022-08-07T17:00:14.935Z,23.38
2022-08-07T17:03:07.043Z,23.43
2022-08-07T17:06:19.303Z,23.44
2022-08-07T17:10:04.991Z,23.39
2022-08-07T17:12:44.765Z,23.43
2022-08-07T17:15:20.843Z,23.39
2022-08-07T17:17:47.922Z,23.32
2022-08-07T17:20:37.931Z,23.30
2022-08-07T17:23:22.909Z,23.26
2022-08-07T17:26:24.094Z,23.23
2022-08-07T17:28:58.043Z,23.23
2022-08-07T17:31:33.906Z,23.20
2022-08-07T17:34:35.027Z,23.13
2022-08-07T17:38:05.480Z,23.08
2022-08-07T17:40:30.260Z,23.04
2022-08-07T17:43:18.007Z,23.04
2022-08-07T17:45:56.328Z,23.00
2022-08-07T17:48:30.718Z,22.98
2022-08-07T17:51:59.935Z,22.97
2022-08-07T17:54:29.566Z,22.89
2022-08-07T17:57:56.400Z,22.85
2022-08-07T18:00:33.426Z,22.86
2022-08-07T18:03:09.215Z,22.80
2022-08-07T18:06:02.272Z,22.73
2022-08-07T18:09:00.546Z,22.65
2022-08-07T18:12:12.004Z,22.55
2022-08-07T18:14:38.251Z,22.50
2022-08-07T18:18:46.500Z,22.42
2022-08-07T18:21:08.514Z,22.36
2022-08-07T18:23:57.177Z,22.29
2022-08-07T18:26:40.486Z,22.16
2022-08-07T18:30:05.608Z,22.19
2022-08-07T18:32:22.813Z,22.14
2022-08-07T18:35:15.705Z,22.10
2022-08-07T18:38:58.087Z,22.05
2022-08-07T18:41:08.343Z,21.96
2022-08-07T18:43:57.283Z,21.88
2022-08-07T18:46:49.409Z,21.80
2022-08-07T18:50:31.424Z,21.71
2022-08-07T18:52:54.172Z,21.65
2022-08-07T18:55:57.208Z,21.57
2022-08-07T18:58:55.564Z,21.51
2022-08-07T19:02:18.776Z,21.46
2022-08-07T19:04:59.421Z,21.39
2022-08-07T19:07:51.654Z,21.32
2022-08-07T19:10:31.186Z,21.24
2022-08-07T19:13:46.245Z,21.22
2022-08-07T19:17:08.002Z,21.22
2022-08-07T19:20:29.989Z,21.19
2022-08-07T19:23:18.565Z,21.06
2022-08-07T19:26:23.436Z,20.95
2022-08-07T19:30:57.762Z,20.79
2022-08-07T19:32:10.248Z,20.62
2022-08-07T19:34:34.374Z,20.44
2022-08-07T19:37:10.285Z,20.12
2022-08-07T19:39:57.198Z,19.98
2022-08-07T19:42:31.699Z,19.83
2022-08-07T19:45:12.474Z,19.69
2022-08-07T19:47:59.037Z,19.59
2022-08-07T19:50:41.439Z,19.50
2022-08-07T19:54:34.718Z,19.41
2022-08-07T19:56:15.095Z,19.15
2022-08-07T19:58:58.161Z,19.04
2022-08-07T20:01:52.209Z,19.03
2022-08-07T20:04:31.950Z,19.07
2022-08-07T20:07:09.262Z,19.10
2022-08-07T20:10:33.676Z,19.16
2022-08-07T20:12:40.461Z,19.29
2022-08-07T20:15:21.904Z,19.41
2022-08-07T20:18:01.410Z,19.32
2022-08-07T20:20:31.565Z,19.04
2022-08-07T20:23:23.114Z,18.81
2022-08-07T20:25:50.763Z,18.63
2022-08-07T20:28:29.763Z,18.46
2022-08-07T20:31:00.349Z,18.28
2022-08-07T20:33:37.482Z,18.14
2022-08-07T20:36:07.242Z,18.02
2022-08-07T20:38:36.494Z,17.89
2022-08-07T20:41:34.246Z,17.91
2022-08-07T20:44:12.666Z,18.01
2022-08-07T20:46:44.278Z,18.09
2022-08-07T20:49:57.994Z,18.12
2022-08-07T20:52:16.679Z,18.05
2022-08-07T20:54:53.812Z,18.11
2022-08-07T20:57:38.437Z,18.06
2022-08-07T21:00:17.988Z,18.06
2022-08-07T21:02:59.781Z,18.08
2022-08-07T21:05:51.199Z,18.03
2022-08-07T21:08:39.305Z,17.96
2022-08-07T21:11:14.652Z,17.94
2022-08-07T21:14:16.239Z,17.95
2022-08-07T21:17:06.405Z,17.94
2022-08-07T21:19:51.175Z,17.90
2022-08-07T21:22:19.966Z,17.88
2022-08-07T21:24:55.803Z,17.95
2022-08-07T21:27:47.429Z,17.89
2022-08-07T21:30:17.578Z,17.89
2022-08-07T21:33:13.050Z,18.01
2022-08-07T21:36:04.087Z,18.06
2022-08-07T21:38:55.318Z,18.02
2022-08-07T21:41:59.838Z,18.01
2022-08-07T21:44:44.315Z,18.02
2022-08-07T21:47:34.763Z,17.97
2022-08-07T21:50:14.510Z,17.85
2022-08-07T21:53:08.413Z,17.77
2022-08-07T21:56:04.765Z,17.70
2022-08-07T21:59:09.407Z,17.69
2022-08-07T22:02:10.723Z,17.62
2022-08-07T22:04:37.154Z,17.55
2022-08-07T22:07:12.824Z,17.50
2022-08-07T22:09:54.379Z,17.43
2022-08-07T22:12:48.329Z,17.27
2022-08-07T22:16:39.514Z,17.22
2022-08-07T22:18:35.643Z,17.22
2022-08-07T22:21:16.873Z,17.12
2022-08-07T22:23:59.911Z,17.12
2022-08-07T22:26:36.709Z,17.10
2022-08-07T22:29:38.139Z,17.03
2022-08-07T22:32:29.151Z,17.02
2022-08-07T22:35:02.224Z,16.96
2022-08-07T22:38:03.887Z,16.85
2022-08-07T22:40:56.853Z,16.66
2022-08-07T22:43:33.956Z,16.46
2022-08-07T22:47:03.051Z,16.29
2022-08-07T22:49:18.139Z,16.33
2022-08-07T22:52:37.152Z,16.36
2022-08-07T22:55:17.052Z,16.34
2022-08-07T22:58:17.407Z,16.27
2022-08-07T23:01:06.997Z,16.19
2022-08-07T23:04:00.244Z,16.16
2022-08-07T23:06:27.153Z,16.06
2022-08-07T23:10:04.435Z,16.10
2022-08-07T23:12:37.347Z,16.10
2022-08-07T23:15:11.361Z,16.11
2022-08-07T23:18:10.404Z,16.06
2022-08-07T23:20:52.986Z,15.97
2022-08-07T23:24:06.298Z,15.91
2022-08-07T23:26:50.596Z,15.93
2022-08-07T23:30:38.976Z,15.87
2022-08-07T23:34:19.766Z,15.79
2022-08-07T23:35:44.797Z,15.64
2022-08-07T23:38:43.152Z,15.54
2022-08-07T23:41:33.374Z,15.58
2022-08-07T23:44:29.966Z,15.55
2022-08-07T23:47:05.530Z,15.55
2022-08-07T23:49:51.447Z,15.51
2022-08-07T23:52:58.558Z,15.46
2022-08-07T23:55:51.843Z,15.41
2022-08-07T23:58:26.394Z,15.35
